<?xml version='1.0' encoding='UTF-8'?><gpx version="1.1" creator="JPX - https://github.com/jenetics/jpx" xmlns="http://www.topografix.com/GPX/1/1"><trk><trkseg><trkpt lat="41.9204781" lon="12.8780191"><ele>501.99999999999994</ele><time>2026-04-10T16:59:09.319Z</time></trkpt><trkpt lat="41.9204088" lon="12.8780026"><ele>502.0</ele><time>2026-04-10T16:59:23.319Z</time></trkpt><trkpt lat="41.9204362" lon="12.878083"><ele>501.99999999999994</ele><time>2026-04-10T16:59:35.318Z</time></trkpt><trkpt lat="41.920506" lon="12.8780587"><ele>501.99999999999994</ele><time>2026-04-10T16:59:42.319Z</time></trkpt><trkpt lat="41.920495" lon="12.8781446"><ele>502.0</ele><time>2026-04-10T16:59:55.147Z</time></trkpt><trkpt lat="41.9204638" lon="12.8782209"><ele>501.99999999999994</ele><time>2026-04-10T17:00:33.319Z</time></trkpt><trkpt lat="41.9204119" lon="12.8782807"><ele>501.99999999999994</ele><time>2026-04-10T17:00:39.318Z</time></trkpt><trkpt lat="41.9203601" lon="12.8783447"><ele>501.99999999999994</ele><time>2026-04-10T17:00:49.319Z</time></trkpt><trkpt lat="41.9203177" lon="12.8784079"><ele>502.0</ele><time>2026-04-10T17:00:56.319Z</time></trkpt><trkpt lat="41.9203771" lon="12.8784671"><ele>501.99999999999994</ele><time>2026-04-10T17:01:14.319Z</time></trkpt><trkpt lat="41.9204409" lon="12.8784886"><ele>501.99999999999994</ele><time>2026-04-10T17:01:22.361Z</time></trkpt><trkpt lat="41.9204246" lon="12.8785771"><ele>502.0</ele><time>2026-04-10T17:01:58.318Z</time></trkpt><trkpt lat="41.9203555" lon="12.8785744"><ele>501.99999999999994</ele><time>2026-04-10T17:02:04.319Z</time></trkpt><trkpt lat="41.9202876" lon="12.8785841"><ele>501.99999999999994</ele><time>2026-04-10T17:02:09.319Z</time></trkpt><trkpt lat="41.9202139" lon="12.8786272"><ele>504.99999999999994</ele><time>2026-04-10T17:02:15.319Z</time></trkpt><trkpt lat="41.9201491" lon="12.8786842"><ele>508.0</ele><time>2026-04-10T17:02:20.319Z</time></trkpt><trkpt lat="41.9201095" lon="12.8787595"><ele>510.99999999999994</ele><time>2026-04-10T17:02:25.32Z</time></trkpt><trkpt lat="41.9200934" lon="12.8788488"><ele>514.0</ele><time>2026-04-10T17:02:30.319Z</time></trkpt><trkpt lat="41.920104" lon="12.8789428"><ele>517.0</ele><time>2026-04-10T17:02:38.287Z</time></trkpt><trkpt lat="41.9201053" lon="12.8790281"><ele>519.9999999999999</ele><time>2026-04-10T17:02:43.304Z</time></trkpt><trkpt lat="41.9201136" lon="12.8791173"><ele>523.0</ele><time>2026-04-10T17:02:48.309Z</time></trkpt><trkpt lat="41.920087" lon="12.8792077"><ele>523.9999999999999</ele><time>2026-04-10T17:02:55.319Z</time></trkpt><trkpt lat="41.9200882" lon="12.8792996"><ele>525.0</ele><time>2026-04-10T17:03:00.319Z</time></trkpt><trkpt lat="41.9201153" lon="12.8793771"><ele>526.0</ele><time>2026-04-10T17:03:03.319Z</time></trkpt><trkpt lat="41.9201298" lon="12.8794634"><ele>527.0</ele><time>2026-04-10T17:03:08.319Z</time></trkpt><trkpt lat="41.9201458" lon="12.8795584"><ele>528.0</ele><time>2026-04-10T17:03:14.319Z</time></trkpt><trkpt lat="41.9201709" lon="12.8796452"><ele>528.9999999999999</ele><time>2026-04-10T17:03:19.247Z</time></trkpt><trkpt lat="41.9201858" lon="12.8797403"><ele>530.0</ele><time>2026-04-10T17:03:25.319Z</time></trkpt><trkpt lat="41.9201981" lon="12.8798372"><ele>529.9999999999999</ele><time>2026-04-10T17:03:30.317Z</time></trkpt><trkpt lat="41.9202136" lon="12.8799337"><ele>530.0</ele><time>2026-04-10T17:03:36.319Z</time></trkpt><trkpt lat="41.9202284" lon="12.8800226"><ele>530.0</ele><time>2026-04-10T17:03:42.286Z</time></trkpt><trkpt lat="41.9202493" lon="12.8801043"><ele>530.0</ele><time>2026-04-10T17:03:47.32Z</time></trkpt><trkpt lat="41.9202587" lon="12.8801964"><ele>530.0</ele><time>2026-04-10T17:03:52.319Z</time></trkpt><trkpt lat="41.9202669" lon="12.8802898"><ele>529.9999999999999</ele><time>2026-04-10T17:03:57.318Z</time></trkpt><trkpt lat="41.9202725" lon="12.8803814"><ele>530.0</ele><time>2026-04-10T17:04:02.315Z</time></trkpt><trkpt lat="41.9202938" lon="12.8804735"><ele>529.8571428571428</ele><time>2026-04-10T17:04:08.32Z</time></trkpt><trkpt lat="41.9203098" lon="12.8805664"><ele>529.7142857142857</ele><time>2026-04-10T17:04:13.327Z</time></trkpt><trkpt lat="41.9203172" lon="12.880667"><ele>529.5714285714286</ele><time>2026-04-10T17:04:19.319Z</time></trkpt><trkpt lat="41.9203312" lon="12.8807504"><ele>529.4285714285713</ele><time>2026-04-10T17:04:24.318Z</time></trkpt><trkpt lat="41.920353" lon="12.8808389"><ele>529.2857142857142</ele><time>2026-04-10T17:04:29.319Z</time></trkpt><trkpt lat="41.9203769" lon="12.8809297"><ele>529.1428571428571</ele><time>2026-04-10T17:04:35.319Z</time></trkpt><trkpt lat="41.9203917" lon="12.8810244"><ele>529.0</ele><time>2026-04-10T17:04:40.319Z</time></trkpt><trkpt lat="41.920406" lon="12.8811193"><ele>528.4285714285714</ele><time>2026-04-10T17:04:45.325Z</time></trkpt><trkpt lat="41.9204215" lon="12.8812038"><ele>527.8571428571429</ele><time>2026-04-10T17:04:50.267Z</time></trkpt><trkpt lat="41.9204066" lon="12.8812912"><ele>527.2857142857142</ele><time>2026-04-10T17:04:58.338Z</time></trkpt><trkpt lat="41.9203473" lon="12.8813284"><ele>526.7142857142858</ele><time>2026-04-10T17:05:56.32Z</time></trkpt><trkpt lat="41.9203064" lon="12.881394"><ele>526.1428571428571</ele><time>2026-04-10T17:06:10.318Z</time></trkpt><trkpt lat="41.9202872" lon="12.8813059"><ele>525.5714285714286</ele><time>2026-04-10T17:06:22.319Z</time></trkpt><trkpt lat="41.9202724" lon="12.8812131"><ele>525.0</ele><time>2026-04-10T17:06:33.318Z</time></trkpt><trkpt lat="41.9202098" lon="12.8811801"><ele>525.0</ele><time>2026-04-10T17:06:45.319Z</time></trkpt><trkpt lat="41.9201797" lon="12.8811033"><ele>525.0</ele><time>2026-04-10T17:06:59.327Z</time></trkpt><trkpt lat="41.9200654" lon="12.8810857"><ele>525.0</ele><time>2026-04-10T17:07:03.319Z</time></trkpt><trkpt lat="41.9200225" lon="12.8810086"><ele>525.0</ele><time>2026-04-10T17:07:30.319Z</time></trkpt><trkpt lat="41.919954" lon="12.8810282"><ele>525.0</ele><time>2026-04-10T17:08:22.319Z</time></trkpt><trkpt lat="41.9199707" lon="12.8811191"><ele>525.0</ele><time>2026-04-10T17:08:30.319Z</time></trkpt><trkpt lat="41.9199483" lon="12.8812012"><ele>518.7142857142857</ele><time>2026-04-10T17:08:58.325Z</time></trkpt><trkpt lat="41.9198866" lon="12.8812187"><ele>512.4285714285714</ele><time>2026-04-10T17:09:58.319Z</time></trkpt><trkpt lat="41.9198442" lon="12.8812973"><ele>506.1428571428571</ele><time>2026-04-10T17:10:05.318Z</time></trkpt><trkpt lat="41.9197917" lon="12.8812409"><ele>499.85714285714283</ele><time>2026-04-10T17:10:15.319Z</time></trkpt><trkpt lat="41.9197314" lon="12.8811939"><ele>493.57142857142856</ele><time>2026-04-10T17:10:35.319Z</time></trkpt><trkpt lat="41.9196474" lon="12.8812839"><ele>487.2857142857142</ele><time>2026-04-10T17:10:59.319Z</time></trkpt><trkpt lat="41.9196007" lon="12.881353"><ele>480.99999999999994</ele><time>2026-04-10T17:11:08.319Z</time></trkpt><trkpt lat="41.9195836" lon="12.8814353"><ele>480.99999999999994</ele><time>2026-04-10T17:11:17.319Z</time></trkpt><trkpt lat="41.9195283" lon="12.8814839"><ele>481.0</ele><time>2026-04-10T17:11:24.319Z</time></trkpt><trkpt lat="41.9194659" lon="12.881524"><ele>480.99999999999994</ele><time>2026-04-10T17:11:32.319Z</time></trkpt><trkpt lat="41.9194842" lon="12.8816177"><ele>480.99999999999994</ele><time>2026-04-10T17:11:38.319Z</time></trkpt><trkpt lat="41.9194857" lon="12.8817026"><ele>481.0</ele><time>2026-04-10T17:11:44.318Z</time></trkpt><trkpt lat="41.9194585" lon="12.8817824"><ele>480.99999999999994</ele><time>2026-04-10T17:11:49.319Z</time></trkpt><trkpt lat="41.9193961" lon="12.8818037"><ele>480.99999999999994</ele><time>2026-04-10T17:11:58.319Z</time></trkpt><trkpt lat="41.9193314" lon="12.8817809"><ele>480.2857142857142</ele><time>2026-04-10T17:12:07.319Z</time></trkpt><trkpt lat="41.9193205" lon="12.8818797"><ele>479.57142857142856</ele><time>2026-04-10T17:12:17.319Z</time></trkpt><trkpt lat="41.9193182" lon="12.8819729"><ele>478.85714285714283</ele><time>2026-04-10T17:12:24.319Z</time></trkpt><trkpt lat="41.9193412" lon="12.8820624"><ele>478.1428571428571</ele><time>2026-04-10T17:12:31.318Z</time></trkpt><trkpt lat="41.9193552" lon="12.8821501"><ele>477.42857142857144</ele><time>2026-04-10T17:12:37.32Z</time></trkpt><trkpt lat="41.9193527" lon="12.8822441"><ele>476.7142857142857</ele><time>2026-04-10T17:12:44.319Z</time></trkpt><trkpt lat="41.9193815" lon="12.8823263"><ele>476.0</ele><time>2026-04-10T17:12:54.318Z</time></trkpt><trkpt lat="41.9194375" lon="12.882376"><ele>476.0</ele><time>2026-04-10T17:13:02.214Z</time></trkpt><trkpt lat="41.9194982" lon="12.8824306"><ele>476.0</ele><time>2026-04-10T17:13:09.319Z</time></trkpt><trkpt lat="41.919547" lon="12.8824966"><ele>476.0</ele><time>2026-04-10T17:13:16.345Z</time></trkpt><trkpt lat="41.9195933" lon="12.8825601"><ele>476.0</ele><time>2026-04-10T17:13:24.302Z</time></trkpt><trkpt lat="41.9195691" lon="12.8826455"><ele>476.0</ele><time>2026-04-10T17:14:25.319Z</time></trkpt><trkpt lat="41.9195167" lon="12.8825789"><ele>476.0</ele><time>2026-04-10T17:15:22.251Z</time></trkpt><trkpt lat="41.9194891" lon="12.8826579"><ele>476.0</ele><time>2026-04-10T17:15:43.319Z</time></trkpt><trkpt lat="41.9194892" lon="12.8828031"><ele>476.57142857142856</ele><time>2026-04-10T17:16:44.32Z</time></trkpt><trkpt lat="41.9195334" lon="12.8828677"><ele>477.1428571428571</ele><time>2026-04-10T17:16:55.319Z</time></trkpt><trkpt lat="41.9195774" lon="12.882937"><ele>477.7142857142857</ele><time>2026-04-10T17:17:01.319Z</time></trkpt><trkpt lat="41.9196062" lon="12.8830245"><ele>478.2857142857143</ele><time>2026-04-10T17:17:08.319Z</time></trkpt><trkpt lat="41.9196192" lon="12.8831111"><ele>478.85714285714283</ele><time>2026-04-10T17:17:19.316Z</time></trkpt><trkpt lat="41.9196542" lon="12.8832297"><ele>479.42857142857144</ele><time>2026-04-10T17:17:49.319Z</time></trkpt><trkpt lat="41.919653" lon="12.8833178"><ele>480.0</ele><time>2026-04-10T17:17:58.32Z</time></trkpt><trkpt lat="41.9196474" lon="12.8834125"><ele>482.0</ele><time>2026-04-10T17:18:11.319Z</time></trkpt><trkpt lat="41.9196572" lon="12.8835064"><ele>484.0</ele><time>2026-04-10T17:18:19.319Z</time></trkpt><trkpt lat="41.9196729" lon="12.8835924"><ele>486.0</ele><time>2026-04-10T17:18:33.319Z</time></trkpt><trkpt lat="41.91967" lon="12.8836796"><ele>488.0</ele><time>2026-04-10T17:18:42.319Z</time></trkpt><trkpt lat="41.9196509" lon="12.8837654"><ele>490.0</ele><time>2026-04-10T17:18:55.319Z</time></trkpt><trkpt lat="41.9196779" lon="12.8838487"><ele>492.0</ele><time>2026-04-10T17:19:04.319Z</time></trkpt><trkpt lat="41.9196864" lon="12.8839404"><ele>494.0</ele><time>2026-04-10T17:19:14.319Z</time></trkpt><trkpt lat="41.9197258" lon="12.8840211"><ele>494.0</ele><time>2026-04-10T17:19:22.319Z</time></trkpt><trkpt lat="41.91978" lon="12.8840735"><ele>494.0</ele><time>2026-04-10T17:19:28.327Z</time></trkpt><trkpt lat="41.9198288" lon="12.8841272"><ele>494.0</ele><time>2026-04-10T17:19:33.319Z</time></trkpt><trkpt lat="41.9198776" lon="12.8841852"><ele>494.0</ele><time>2026-04-10T17:19:40.319Z</time></trkpt><trkpt lat="41.9199002" lon="12.8842682"><ele>494.0</ele><time>2026-04-10T17:19:49.318Z</time></trkpt><trkpt lat="41.9199349" lon="12.8843423"><ele>494.0</ele><time>2026-04-10T17:19:59.319Z</time></trkpt><trkpt lat="41.9200053" lon="12.8843758"><ele>494.0</ele><time>2026-04-10T17:20:06.247Z</time></trkpt><trkpt lat="41.9199833" lon="12.884461"><ele>494.0</ele><time>2026-04-10T17:20:36.318Z</time></trkpt><trkpt lat="41.9199246" lon="12.8844988"><ele>494.0</ele><time>2026-04-10T17:20:44.319Z</time></trkpt><trkpt lat="41.9198549" lon="12.8845075"><ele>494.0</ele><time>2026-04-10T17:21:00.319Z</time></trkpt><trkpt lat="41.9197992" lon="12.8844551"><ele>494.0</ele><time>2026-04-10T17:21:06.321Z</time></trkpt><trkpt lat="41.9197728" lon="12.8843675"><ele>494.0</ele><time>2026-04-10T17:21:12.319Z</time></trkpt><trkpt lat="41.9197308" lon="12.8842814"><ele>494.0</ele><time>2026-04-10T17:21:17.319Z</time></trkpt><trkpt lat="41.919693" lon="12.8842123"><ele>494.0</ele><time>2026-04-10T17:21:22.335Z</time></trkpt><trkpt lat="41.9196414" lon="12.8841419"><ele>494.0</ele><time>2026-04-10T17:21:29.319Z</time></trkpt><trkpt lat="41.9196088" lon="12.8840607"><ele>494.0</ele><time>2026-04-10T17:21:35.319Z</time></trkpt><trkpt lat="41.9195679" lon="12.8839866"><ele>494.0</ele><time>2026-04-10T17:21:41.32Z</time></trkpt><trkpt lat="41.9195223" lon="12.8839254"><ele>494.0</ele><time>2026-04-10T17:21:48.319Z</time></trkpt><trkpt lat="41.9194885" lon="12.8838497"><ele>494.0</ele><time>2026-04-10T17:22:03.319Z</time></trkpt><trkpt lat="41.9194268" lon="12.8839001"><ele>494.0</ele><time>2026-04-10T17:22:32.32Z</time></trkpt><trkpt lat="41.9194174" lon="12.8839891"><ele>494.0</ele><time>2026-04-10T17:22:40.319Z</time></trkpt><trkpt lat="41.919443" lon="12.8840682"><ele>494.0</ele><time>2026-04-10T17:22:59.319Z</time></trkpt><trkpt lat="41.9194503" lon="12.8841535"><ele>494.0</ele><time>2026-04-10T17:23:35.319Z</time></trkpt><trkpt lat="41.9194758" lon="12.8842397"><ele>494.0</ele><time>2026-04-10T17:23:54.318Z</time></trkpt><trkpt lat="41.9195174" lon="12.8843581"><ele>494.0</ele><time>2026-04-10T17:25:08.318Z</time></trkpt><trkpt lat="41.9195091" lon="12.884445"><ele>494.0</ele><time>2026-04-10T17:26:06.319Z</time></trkpt><trkpt lat="41.9195477" lon="12.8845152"><ele>494.0</ele><time>2026-04-10T17:26:18.319Z</time></trkpt><trkpt lat="41.9195462" lon="12.8846033"><ele>494.0</ele><time>2026-04-10T17:26:28.319Z</time></trkpt><trkpt lat="41.9196033" lon="12.884686"><ele>497.42857142857144</ele><time>2026-04-10T17:26:44.319Z</time></trkpt><trkpt lat="41.9196434" lon="12.8847644"><ele>500.85714285714283</ele><time>2026-04-10T17:27:04.319Z</time></trkpt><trkpt lat="41.9197059" lon="12.8848085"><ele>504.2857142857143</ele><time>2026-04-10T17:27:15.319Z</time></trkpt><trkpt lat="41.919754" lon="12.8848633"><ele>507.7142857142857</ele><time>2026-04-10T17:27:24.319Z</time></trkpt><trkpt lat="41.9197867" lon="12.8849414"><ele>511.1428571428571</ele><time>2026-04-10T17:27:32.32Z</time></trkpt><trkpt lat="41.919782" lon="12.8850297"><ele>514.5714285714286</ele><time>2026-04-10T17:27:43.319Z</time></trkpt><trkpt lat="41.9198055" lon="12.8851149"><ele>518.0</ele><time>2026-04-10T17:27:51.319Z</time></trkpt><trkpt lat="41.9198594" lon="12.8852021"><ele>518.0</ele><time>2026-04-10T17:28:00.357Z</time></trkpt><trkpt lat="41.9199048" lon="12.8852782"><ele>518.0</ele><time>2026-04-10T17:28:08.319Z</time></trkpt><trkpt lat="41.9199355" lon="12.8853539"><ele>518.0</ele><time>2026-04-10T17:28:15.319Z</time></trkpt><trkpt lat="41.9199773" lon="12.8854201"><ele>518.0</ele><time>2026-04-10T17:28:21.319Z</time></trkpt><trkpt lat="41.9200387" lon="12.8854553"><ele>518.0</ele><time>2026-04-10T17:28:27.318Z</time></trkpt><trkpt lat="41.9200652" lon="12.8855373"><ele>518.0</ele><time>2026-04-10T17:28:35.323Z</time></trkpt><trkpt lat="41.9200826" lon="12.8856283"><ele>518.0</ele><time>2026-04-10T17:28:42.224Z</time></trkpt><trkpt lat="41.9200571" lon="12.8857086"><ele>520.1999999999999</ele><time>2026-04-10T17:28:50.319Z</time></trkpt><trkpt lat="41.9200493" lon="12.8858041"><ele>522.4</ele><time>2026-04-10T17:28:57.301Z</time></trkpt><trkpt lat="41.9200502" lon="12.8859006"><ele>524.5999999999999</ele><time>2026-04-10T17:29:04.32Z</time></trkpt><trkpt lat="41.9200554" lon="12.8859979"><ele>526.8</ele><time>2026-04-10T17:29:12.319Z</time></trkpt><trkpt lat="41.9200859" lon="12.8860823"><ele>529.0</ele><time>2026-04-10T17:29:18.319Z</time></trkpt><trkpt lat="41.920361" lon="12.8914535"><ele>536.8</ele><time>2026-04-10T17:38:17.32Z</time></trkpt><trkpt lat="41.920367" lon="12.8916342"><ele>544.5999999999999</ele><time>2026-04-10T17:38:29.32Z</time></trkpt><trkpt lat="41.9204042" lon="12.8917043"><ele>552.4</ele><time>2026-04-10T17:38:36.32Z</time></trkpt><trkpt lat="41.9204353" lon="12.8917804"><ele>560.1999999999999</ele><time>2026-04-10T17:38:47.334Z</time></trkpt><trkpt lat="41.920524" lon="12.89192"><ele>568.0</ele><time>2026-04-10T17:39:00.321Z</time></trkpt><trkpt lat="41.9205779" lon="12.8919639"><ele>568.0</ele><time>2026-04-10T17:39:10.32Z</time></trkpt><trkpt lat="41.9206338" lon="12.8921293"><ele>568.0</ele><time>2026-04-10T17:39:21.329Z</time></trkpt><trkpt lat="41.9206001" lon="12.8922047"><ele>568.0</ele><time>2026-04-10T17:39:27.32Z</time></trkpt><trkpt lat="41.9205435" lon="12.8922516"><ele>568.0</ele><time>2026-04-10T17:39:33.32Z</time></trkpt><trkpt lat="41.9204594" lon="12.8923895"><ele>568.0</ele><time>2026-04-10T17:39:44.32Z</time></trkpt><trkpt lat="41.9204669" lon="12.8924827"><ele>568.0</ele><time>2026-04-10T17:39:51.32Z</time></trkpt><trkpt lat="41.9204629" lon="12.8925824"><ele>568.0</ele><time>2026-04-10T17:39:58.34Z</time></trkpt><trkpt lat="41.9204709" lon="12.8927739"><ele>568.0</ele><time>2026-04-10T17:40:10.32Z</time></trkpt><trkpt lat="41.920453" lon="12.8928553"><ele>568.0</ele><time>2026-04-10T17:40:19.321Z</time></trkpt><trkpt lat="41.9205422" lon="12.892966"><ele>568.0</ele><time>2026-04-10T17:40:29.32Z</time></trkpt><trkpt lat="41.9205939" lon="12.8930199"><ele>565.8</ele><time>2026-04-10T17:40:37.32Z</time></trkpt><trkpt lat="41.9206033" lon="12.8931058"><ele>563.5999999999999</ele><time>2026-04-10T17:40:42.333Z</time></trkpt><trkpt lat="41.9205944" lon="12.8932991"><ele>561.4000000000001</ele><time>2026-04-10T17:40:58.331Z</time></trkpt><trkpt lat="41.9205993" lon="12.8933869"><ele>559.2</ele><time>2026-04-10T17:41:07.32Z</time></trkpt><trkpt lat="41.9206852" lon="12.8935271"><ele>557.0</ele><time>2026-04-10T17:41:17.32Z</time></trkpt><trkpt lat="41.9207399" lon="12.8935879"><ele>556.5</ele><time>2026-04-10T17:41:22.32Z</time></trkpt><trkpt lat="41.9208087" lon="12.8935889"><ele>556.0</ele><time>2026-04-10T17:41:30.316Z</time></trkpt><trkpt lat="41.9209705" lon="12.8937672"><ele>555.5</ele><time>2026-04-10T17:42:03.32Z</time></trkpt><trkpt lat="41.9210185" lon="12.8938231"><ele>555.0</ele><time>2026-04-10T17:42:12.32Z</time></trkpt><trkpt lat="41.9211181" lon="12.893937"><ele>555.0</ele><time>2026-04-10T17:42:30.319Z</time></trkpt><trkpt lat="41.9211451" lon="12.8940245"><ele>555.0</ele><time>2026-04-10T17:43:09.32Z</time></trkpt><trkpt lat="41.9209797" lon="12.8942153"><ele>555.0</ele><time>2026-04-10T17:45:36.32Z</time></trkpt><trkpt lat="41.920883" lon="12.8941203"><ele>555.0</ele><time>2026-04-10T17:47:23.331Z</time></trkpt><trkpt lat="41.9208993" lon="12.8942759"><ele>553.5</ele><time>2026-04-10T17:47:47.32Z</time></trkpt><trkpt lat="41.9209368" lon="12.8944601"><ele>552.0</ele><time>2026-04-10T17:48:10.319Z</time></trkpt><trkpt lat="41.9207205" lon="12.8944795"><ele>550.5</ele><time>2026-04-10T17:48:47.285Z</time></trkpt><trkpt lat="41.9206566" lon="12.8945357"><ele>549.0</ele><time>2026-04-10T17:48:53.317Z</time></trkpt><trkpt lat="41.9205906" lon="12.8945464"><ele>549.0</ele><time>2026-04-10T17:48:59.32Z</time></trkpt><trkpt lat="41.9204586" lon="12.8945577"><ele>549.0</ele><time>2026-04-10T17:49:11.32Z</time></trkpt><trkpt lat="41.9203921" lon="12.8945923"><ele>549.0</ele><time>2026-04-10T17:49:17.32Z</time></trkpt><trkpt lat="41.9203248" lon="12.8946153"><ele>549.0</ele><time>2026-04-10T17:49:24.32Z</time></trkpt><trkpt lat="41.9201911" lon="12.8947141"><ele>549.0</ele><time>2026-04-10T17:49:37.29Z</time></trkpt><trkpt lat="41.9201441" lon="12.8947729"><ele>549.0</ele><time>2026-04-10T17:49:44.316Z</time></trkpt><trkpt lat="41.9201303" lon="12.894865"><ele>549.0</ele><time>2026-04-10T17:49:51.319Z</time></trkpt><trkpt lat="41.9200733" lon="12.8950355"><ele>549.0</ele><time>2026-04-10T17:50:03.324Z</time></trkpt><trkpt lat="41.9200844" lon="12.8951261"><ele>549.0</ele><time>2026-04-10T17:50:10.321Z</time></trkpt><trkpt lat="41.9200897" lon="12.8952151"><ele>549.0</ele><time>2026-04-10T17:50:17.321Z</time></trkpt><trkpt lat="41.9199978" lon="12.8953518"><ele>549.0</ele><time>2026-04-10T17:50:32.285Z</time></trkpt><trkpt lat="41.9199704" lon="12.895434"><ele>549.0</ele><time>2026-04-10T17:50:36.308Z</time></trkpt><trkpt lat="41.9199152" lon="12.8954874"><ele>549.0</ele><time>2026-04-10T17:50:41.32Z</time></trkpt><trkpt lat="41.9198643" lon="12.8956698"><ele>549.0</ele><time>2026-04-10T17:50:53.32Z</time></trkpt><trkpt lat="41.9198397" lon="12.8957629"><ele>549.0</ele><time>2026-04-10T17:51:01.265Z</time></trkpt><trkpt lat="41.919805" lon="12.8958478"><ele>549.0</ele><time>2026-04-10T17:51:06.307Z</time></trkpt><trkpt lat="41.919777" lon="12.8960213"><ele>549.0</ele><time>2026-04-10T17:51:22.32Z</time></trkpt><trkpt lat="41.9198231" lon="12.8960845"><ele>549.0</ele><time>2026-04-10T17:51:31.32Z</time></trkpt><trkpt lat="41.9198162" lon="12.8963026"><ele>549.0</ele><time>2026-04-10T17:51:54.321Z</time></trkpt><trkpt lat="41.9198431" lon="12.8963913"><ele>549.0</ele><time>2026-04-10T17:52:01.32Z</time></trkpt><trkpt lat="41.919879" lon="12.8964692"><ele>549.0</ele><time>2026-04-10T17:52:07.32Z</time></trkpt><trkpt lat="41.9198959" lon="12.8965616"><ele>549.0</ele><time>2026-04-10T17:52:13.32Z</time></trkpt><trkpt lat="41.9199049" lon="12.89665"><ele>549.0</ele><time>2026-04-10T17:52:19.28Z</time></trkpt><trkpt lat="41.919927" lon="12.8967341"><ele>549.0</ele><time>2026-04-10T17:52:25.32Z</time></trkpt><trkpt lat="41.9199369" lon="12.8968245"><ele>549.0</ele><time>2026-04-10T17:52:32.32Z</time></trkpt><trkpt lat="41.9199854" lon="12.8969007"><ele>549.0</ele><time>2026-04-10T17:52:38.341Z</time></trkpt><trkpt lat="41.9200236" lon="12.8969714"><ele>549.0</ele><time>2026-04-10T17:52:44.281Z</time></trkpt><trkpt lat="41.9200422" lon="12.8970566"><ele>549.0</ele><time>2026-04-10T17:52:50.32Z</time></trkpt><trkpt lat="41.9200608" lon="12.8971402"><ele>549.0</ele><time>2026-04-10T17:52:55.32Z</time></trkpt><trkpt lat="41.9200561" lon="12.8972387"><ele>550.1428571428571</ele><time>2026-04-10T17:53:01.32Z</time></trkpt><trkpt lat="41.9201" lon="12.8973155"><ele>551.2857142857143</ele><time>2026-04-10T17:53:07.32Z</time></trkpt><trkpt lat="41.9201617" lon="12.89737"><ele>552.4285714285714</ele><time>2026-04-10T17:53:13.32Z</time></trkpt><trkpt lat="41.9201897" lon="12.8974588"><ele>553.5714285714286</ele><time>2026-04-10T17:53:19.32Z</time></trkpt><trkpt lat="41.9202356" lon="12.897524"><ele>554.7142857142857</ele><time>2026-04-10T17:53:27.32Z</time></trkpt><trkpt lat="41.9202569" lon="12.8976077"><ele>555.8571428571429</ele><time>2026-04-10T17:53:33.318Z</time></trkpt><trkpt lat="41.9202794" lon="12.8976943"><ele>557.0</ele><time>2026-04-10T17:53:40.32Z</time></trkpt><trkpt lat="41.9202738" lon="12.8977978"><ele>557.7142857142858</ele><time>2026-04-10T17:53:48.32Z</time></trkpt><trkpt lat="41.9203034" lon="12.8978837"><ele>558.4285714285714</ele><time>2026-04-10T17:53:55.32Z</time></trkpt><trkpt lat="41.9203572" lon="12.8979286"><ele>559.1428571428571</ele><time>2026-04-10T17:54:04.32Z</time></trkpt><trkpt lat="41.9203815" lon="12.898017"><ele>559.8571428571429</ele><time>2026-04-10T17:54:11.32Z</time></trkpt><trkpt lat="41.920379" lon="12.8981152"><ele>560.5714285714286</ele><time>2026-04-10T17:54:18.32Z</time></trkpt><trkpt lat="41.9203889" lon="12.8982074"><ele>561.2857142857143</ele><time>2026-04-10T17:54:24.32Z</time></trkpt><trkpt lat="41.920416" lon="12.8982921"><ele>562.0</ele><time>2026-04-10T17:54:30.32Z</time></trkpt><trkpt lat="41.9204144" lon="12.8983778"><ele>564.1428571428572</ele><time>2026-04-10T17:54:37.32Z</time></trkpt><trkpt lat="41.9203638" lon="12.8984304"><ele>566.2857142857143</ele><time>2026-04-10T17:54:58.32Z</time></trkpt><trkpt lat="41.920306" lon="12.8984693"><ele>568.4285714285714</ele><time>2026-04-10T17:55:09.321Z</time></trkpt><trkpt lat="41.9202753" lon="12.8985467"><ele>570.5714285714287</ele><time>2026-04-10T17:55:17.32Z</time></trkpt><trkpt lat="41.92029" lon="12.8986352"><ele>572.7142857142858</ele><time>2026-04-10T17:55:21.294Z</time></trkpt><trkpt lat="41.9203187" lon="12.8987202"><ele>574.8571428571429</ele><time>2026-04-10T17:55:26.329Z</time></trkpt><trkpt lat="41.920384" lon="12.8987387"><ele>577.0</ele><time>2026-04-10T17:55:32.32Z</time></trkpt><trkpt lat="41.9204008" lon="12.8988345"><ele>577.0</ele><time>2026-04-10T17:55:42.345Z</time></trkpt><trkpt lat="41.9203268" lon="12.8989634"><ele>577.0</ele><time>2026-04-10T17:56:25.321Z</time></trkpt><trkpt lat="41.9203592" lon="12.8990842"><ele>577.0</ele><time>2026-04-10T17:57:35.321Z</time></trkpt><trkpt lat="41.9203848" lon="12.8991724"><ele>577.0</ele><time>2026-04-10T17:57:40.321Z</time></trkpt><trkpt lat="41.9203203" lon="12.8992087"><ele>577.0</ele><time>2026-04-10T17:58:07.321Z</time></trkpt><trkpt lat="41.9202802" lon="12.8992764"><ele>577.0</ele><time>2026-04-10T17:58:12.318Z</time></trkpt><trkpt lat="41.9202335" lon="12.8993341"><ele>575.8571428571429</ele><time>2026-04-10T17:58:22.333Z</time></trkpt><trkpt lat="41.9201661" lon="12.899324"><ele>574.7142857142858</ele><time>2026-04-10T17:58:52.321Z</time></trkpt><trkpt lat="41.920101" lon="12.8992965"><ele>573.5714285714287</ele><time>2026-04-10T17:59:02.321Z</time></trkpt><trkpt lat="41.9200356" lon="12.8992853"><ele>572.4285714285714</ele><time>2026-04-10T17:59:18.321Z</time></trkpt><trkpt lat="41.9199717" lon="12.8992827"><ele>571.2857142857143</ele><time>2026-04-10T17:59:28.236Z</time></trkpt><trkpt lat="41.9198941" lon="12.8992827"><ele>570.1428571428572</ele><time>2026-04-10T18:00:10.321Z</time></trkpt><trkpt lat="41.919827" lon="12.8992625"><ele>569.0</ele><time>2026-04-10T18:00:14.321Z</time></trkpt><trkpt lat="41.9197829" lon="12.899201"><ele>569.0000000000001</ele><time>2026-04-10T18:00:25.923Z</time></trkpt><trkpt lat="41.9197218" lon="12.8991801"><ele>569.0</ele><time>2026-04-10T18:00:50.321Z</time></trkpt><trkpt lat="41.9196159" lon="12.8992287"><ele>569.0</ele><time>2026-04-10T18:01:17.322Z</time></trkpt><trkpt lat="41.9195721" lon="12.8992913"><ele>569.0</ele><time>2026-04-10T18:01:24.321Z</time></trkpt><trkpt lat="41.9195309" lon="12.8993708"><ele>569.0</ele><time>2026-04-10T18:01:32.321Z</time></trkpt><trkpt lat="41.9195074" lon="12.8994573"><ele>569.0000000000001</ele><time>2026-04-10T18:01:40.321Z</time></trkpt><trkpt lat="41.9194853" lon="12.8995438"><ele>569.0</ele><time>2026-04-10T18:01:51.321Z</time></trkpt><trkpt lat="41.9194856" lon="12.8996326"><ele>569.0000000000001</ele><time>2026-04-10T18:02:03.281Z</time></trkpt><trkpt lat="41.919508" lon="12.8997198"><ele>569.0</ele><time>2026-04-10T18:02:14.321Z</time></trkpt><trkpt lat="41.919509" lon="12.8998131"><ele>569.0</ele><time>2026-04-10T18:02:32.321Z</time></trkpt><trkpt lat="41.9194986" lon="12.8999265"><ele>569.0</ele><time>2026-04-10T18:02:49.321Z</time></trkpt><trkpt lat="41.9195007" lon="12.9000201"><ele>569.0</ele><time>2026-04-10T18:02:55.32Z</time></trkpt><trkpt lat="41.9195157" lon="12.9001107"><ele>569.0000000000001</ele><time>2026-04-10T18:03:01.321Z</time></trkpt><trkpt lat="41.9194832" lon="12.9001835"><ele>569.0</ele><time>2026-04-10T18:03:16.321Z</time></trkpt><trkpt lat="41.919419" lon="12.9002003"><ele>569.0000000000001</ele><time>2026-04-10T18:03:28.321Z</time></trkpt><trkpt lat="41.9193825" lon="12.900127"><ele>569.0</ele><time>2026-04-10T18:03:44.321Z</time></trkpt><trkpt lat="41.9193839" lon="12.9000406"><ele>569.0</ele><time>2026-04-10T18:03:51.321Z</time></trkpt><trkpt lat="41.9193979" lon="12.8999537"><ele>569.0</ele><time>2026-04-10T18:03:57.321Z</time></trkpt><trkpt lat="41.9193932" lon="12.8998642"><ele>569.0</ele><time>2026-04-10T18:04:03.316Z</time></trkpt><trkpt lat="41.9193953" lon="12.8997768"><ele>569.0000000000001</ele><time>2026-04-10T18:04:12.321Z</time></trkpt><trkpt lat="41.9193923" lon="12.8996893"><ele>569.0</ele><time>2026-04-10T18:04:18.32Z</time></trkpt><trkpt lat="41.9193906" lon="12.8996004"><ele>569.0000000000001</ele><time>2026-04-10T18:04:26.321Z</time></trkpt><trkpt lat="41.9193737" lon="12.8995171"><ele>569.0</ele><time>2026-04-10T18:04:40.321Z</time></trkpt><trkpt lat="41.9193416" lon="12.8994401"><ele>569.0</ele><time>2026-04-10T18:04:51.322Z</time></trkpt><trkpt lat="41.9193363" lon="12.8993472"><ele>569.0</ele><time>2026-04-10T18:05:00.321Z</time></trkpt><trkpt lat="41.9192916" lon="12.8992819"><ele>569.0</ele><time>2026-04-10T18:06:08.321Z</time></trkpt><trkpt lat="41.9193553" lon="12.8992316"><ele>569.0000000000001</ele><time>2026-04-10T18:06:27.321Z</time></trkpt><trkpt lat="41.9193921" lon="12.8991488"><ele>569.0</ele><time>2026-04-10T18:06:34.321Z</time></trkpt><trkpt lat="41.9194404" lon="12.8990809"><ele>568.5714285714287</ele><time>2026-04-10T18:06:39.296Z</time></trkpt><trkpt lat="41.9194943" lon="12.8990152"><ele>568.1428571428571</ele><time>2026-04-10T18:06:47.322Z</time></trkpt><trkpt lat="41.919531" lon="12.898942"><ele>567.7142857142858</ele><time>2026-04-10T18:06:55.322Z</time></trkpt><trkpt lat="41.9195239" lon="12.8988464"><ele>567.2857142857143</ele><time>2026-04-10T18:07:14.321Z</time></trkpt><trkpt lat="41.919504" lon="12.8987538"><ele>566.8571428571429</ele><time>2026-04-10T18:07:20.32Z</time></trkpt><trkpt lat="41.9194679" lon="12.8986539"><ele>566.4285714285714</ele><time>2026-04-10T18:07:42.321Z</time></trkpt><trkpt lat="41.9194161" lon="12.898587"><ele>566.0</ele><time>2026-04-10T18:07:55.321Z</time></trkpt><trkpt lat="41.9193648" lon="12.8985225"><ele>566.0</ele><time>2026-04-10T18:08:06.32Z</time></trkpt><trkpt lat="41.9193045" lon="12.8984771"><ele>566.0</ele><time>2026-04-10T18:08:12.337Z</time></trkpt><trkpt lat="41.9192509" lon="12.8984213"><ele>566.0</ele><time>2026-04-10T18:08:17.32Z</time></trkpt><trkpt lat="41.9191888" lon="12.8984069"><ele>566.0</ele><time>2026-04-10T18:08:27.321Z</time></trkpt><trkpt lat="41.9191278" lon="12.8984345"><ele>566.0</ele><time>2026-04-10T18:08:36.321Z</time></trkpt><trkpt lat="41.919065" lon="12.8984425"><ele>566.0</ele><time>2026-04-10T18:08:41.321Z</time></trkpt><trkpt lat="41.9189945" lon="12.8984365"><ele>566.0</ele><time>2026-04-10T18:08:51.318Z</time></trkpt><trkpt lat="41.9189286" lon="12.8984718"><ele>565.4285714285714</ele><time>2026-04-10T18:08:56.32Z</time></trkpt><trkpt lat="41.9190234" lon="12.8984217"><ele>564.8571428571429</ele><time>2026-04-10T18:09:59.321Z</time></trkpt><trkpt lat="41.9190647" lon="12.898347"><ele>564.2857142857143</ele><time>2026-04-10T18:10:10.322Z</time></trkpt><trkpt lat="41.9190881" lon="12.8982641"><ele>563.7142857142858</ele><time>2026-04-10T18:10:17.321Z</time></trkpt><trkpt lat="41.9190994" lon="12.8981723"><ele>563.1428571428571</ele><time>2026-04-10T18:10:31.322Z</time></trkpt><trkpt lat="41.9191354" lon="12.8980979"><ele>562.5714285714287</ele><time>2026-04-10T18:10:39.322Z</time></trkpt><trkpt lat="41.9191785" lon="12.8980274"><ele>562.0</ele><time>2026-04-10T18:12:28.322Z</time></trkpt><trkpt lat="41.9191592" lon="12.8979389"><ele>562.0</ele><time>2026-04-10T18:12:34.322Z</time></trkpt><trkpt lat="41.919207" lon="12.8978654"><ele>562.0</ele><time>2026-04-10T18:12:49.322Z</time></trkpt><trkpt lat="41.919257" lon="12.8977539"><ele>562.0</ele><time>2026-04-10T18:13:04.322Z</time></trkpt><trkpt lat="41.9193268" lon="12.8977054"><ele>562.0</ele><time>2026-04-10T18:13:05.322Z</time></trkpt><trkpt lat="41.9193849" lon="12.8976573"><ele>562.0</ele><time>2026-04-10T18:13:10.321Z</time></trkpt><trkpt lat="41.9194428" lon="12.8976001"><ele>562.0</ele><time>2026-04-10T18:13:20.322Z</time></trkpt><trkpt lat="41.9195032" lon="12.8975499"><ele>560.0000000000001</ele><time>2026-04-10T18:13:27.322Z</time></trkpt><trkpt lat="41.9195657" lon="12.8975145"><ele>558.0</ele><time>2026-04-10T18:13:35.322Z</time></trkpt><trkpt lat="41.9196294" lon="12.8974686"><ele>556.0</ele><time>2026-04-10T18:13:54.322Z</time></trkpt><trkpt lat="41.919689" lon="12.8974248"><ele>554.0</ele><time>2026-04-10T18:13:59.322Z</time></trkpt><trkpt lat="41.9197527" lon="12.8974215"><ele>552.0</ele><time>2026-04-10T18:14:15.322Z</time></trkpt><trkpt lat="41.9198135" lon="12.8973874"><ele>550.0000000000001</ele><time>2026-04-10T18:14:21.322Z</time></trkpt><trkpt lat="41.9198544" lon="12.8973176"><ele>548.0</ele><time>2026-04-10T18:14:27.322Z</time></trkpt><trkpt lat="41.9198763" lon="12.8972271"><ele>548.0000000000001</ele><time>2026-04-10T18:14:34.322Z</time></trkpt><trkpt lat="41.9198767" lon="12.8971343"><ele>548.0</ele><time>2026-04-10T18:14:42.337Z</time></trkpt><trkpt lat="41.9198678" lon="12.8970467"><ele>548.0</ele><time>2026-04-10T18:14:52.322Z</time></trkpt><trkpt lat="41.9198683" lon="12.8969549"><ele>548.0</ele><time>2026-04-10T18:15:02.321Z</time></trkpt><trkpt lat="41.9198564" lon="12.8968694"><ele>548.0</ele><time>2026-04-10T18:15:15.323Z</time></trkpt><trkpt lat="41.9198496" lon="12.89678"><ele>548.0000000000001</ele><time>2026-04-10T18:15:27.322Z</time></trkpt><trkpt lat="41.9198234" lon="12.8967013"><ele>548.0</ele><time>2026-04-10T18:15:32.322Z</time></trkpt><trkpt lat="41.9198432" lon="12.896616"><ele>548.1428571428572</ele><time>2026-04-10T18:15:47.274Z</time></trkpt><trkpt lat="41.91983" lon="12.8965318"><ele>548.2857142857143</ele><time>2026-04-10T18:16:01.322Z</time></trkpt><trkpt lat="41.9197963" lon="12.8964599"><ele>548.4285714285714</ele><time>2026-04-10T18:16:17.321Z</time></trkpt><trkpt lat="41.919765" lon="12.8963806"><ele>548.5714285714287</ele><time>2026-04-10T18:16:28.322Z</time></trkpt><trkpt lat="41.919749" lon="12.8962926"><ele>548.7142857142858</ele><time>2026-04-10T18:16:39.323Z</time></trkpt><trkpt lat="41.9197277" lon="12.8962087"><ele>548.8571428571429</ele><time>2026-04-10T18:16:50.322Z</time></trkpt><trkpt lat="41.9197015" lon="12.8961227"><ele>549.0</ele><time>2026-04-10T18:17:03.321Z</time></trkpt><trkpt lat="41.9196908" lon="12.8960358"><ele>549.0</ele><time>2026-04-10T18:17:15.322Z</time></trkpt><trkpt lat="41.9196847" lon="12.8959436"><ele>549.0</ele><time>2026-04-10T18:17:25.324Z</time></trkpt><trkpt lat="41.9197137" lon="12.8958603"><ele>549.0</ele><time>2026-04-10T18:17:38.322Z</time></trkpt><trkpt lat="41.9197124" lon="12.8957678"><ele>549.0</ele><time>2026-04-10T18:17:49.323Z</time></trkpt><trkpt lat="41.9197276" lon="12.8956845"><ele>549.0</ele><time>2026-04-10T18:17:59.323Z</time></trkpt><trkpt lat="41.9197632" lon="12.8956126"><ele>549.0</ele><time>2026-04-10T18:18:13.323Z</time></trkpt><trkpt lat="41.9197639" lon="12.8955229"><ele>549.0</ele><time>2026-04-10T18:18:31.323Z</time></trkpt><trkpt lat="41.9198465" lon="12.8953991"><ele>549.4285714285714</ele><time>2026-04-10T18:19:15.162Z</time></trkpt><trkpt lat="41.9198983" lon="12.8953437"><ele>549.8571428571429</ele><time>2026-04-10T18:19:56.323Z</time></trkpt><trkpt lat="41.9199471" lon="12.8952869"><ele>550.2857142857143</ele><time>2026-04-10T18:20:08.322Z</time></trkpt><trkpt lat="41.9199399" lon="12.8951938"><ele>550.7142857142858</ele><time>2026-04-10T18:20:18.319Z</time></trkpt><trkpt lat="41.9199559" lon="12.8951031"><ele>551.1428571428572</ele><time>2026-04-10T18:20:47.323Z</time></trkpt><trkpt lat="41.9199386" lon="12.8950104"><ele>551.5714285714286</ele><time>2026-04-10T18:20:58.321Z</time></trkpt><trkpt lat="41.9199243" lon="12.8949147"><ele>552.0</ele><time>2026-04-10T18:21:05.323Z</time></trkpt><trkpt lat="41.9199471" lon="12.8948272"><ele>550.7142857142858</ele><time>2026-04-10T18:21:11.297Z</time></trkpt><trkpt lat="41.9199585" lon="12.894739"><ele>549.4285714285714</ele><time>2026-04-10T18:21:17.316Z</time></trkpt><trkpt lat="41.9199473" lon="12.8946471"><ele>548.1428571428571</ele><time>2026-04-10T18:21:36.237Z</time></trkpt><trkpt lat="41.9199423" lon="12.8945617"><ele>546.8571428571429</ele><time>2026-04-10T18:21:43.323Z</time></trkpt><trkpt lat="41.9199229" lon="12.8944791"><ele>545.5714285714286</ele><time>2026-04-10T18:21:51.322Z</time></trkpt><trkpt lat="41.919929" lon="12.8943912"><ele>544.2857142857143</ele><time>2026-04-10T18:21:57.3Z</time></trkpt><trkpt lat="41.9199435" lon="12.8943023"><ele>543.0</ele><time>2026-04-10T18:22:04.32Z</time></trkpt><trkpt lat="41.9199722" lon="12.8942174"><ele>541.8571428571429</ele><time>2026-04-10T18:22:11.323Z</time></trkpt><trkpt lat="41.9199812" lon="12.8941336"><ele>540.7142857142857</ele><time>2026-04-10T18:22:18.323Z</time></trkpt><trkpt lat="41.9199754" lon="12.8940489"><ele>539.5714285714286</ele><time>2026-04-10T18:22:53.326Z</time></trkpt><trkpt lat="41.9199396" lon="12.8939763"><ele>538.4285714285714</ele><time>2026-04-10T18:23:17.324Z</time></trkpt><trkpt lat="41.9199337" lon="12.8938765"><ele>537.2857142857143</ele><time>2026-04-10T18:23:24.324Z</time></trkpt><trkpt lat="41.9199606" lon="12.8937919"><ele>536.1428571428571</ele><time>2026-04-10T18:23:32.324Z</time></trkpt><trkpt lat="41.9199855" lon="12.8937133"><ele>535.0</ele><time>2026-04-10T18:23:38.324Z</time></trkpt><trkpt lat="41.9200519" lon="12.8937573"><ele>536.0</ele><time>2026-04-10T18:24:04.324Z</time></trkpt><trkpt lat="41.9201385" lon="12.8937823"><ele>537.0</ele><time>2026-04-10T18:24:18.324Z</time></trkpt><trkpt lat="41.920189" lon="12.8938399"><ele>538.0</ele><time>2026-04-10T18:24:28.325Z</time></trkpt><trkpt lat="41.9201602" lon="12.8939167"><ele>539.0</ele><time>2026-04-10T18:24:34.324Z</time></trkpt><trkpt lat="41.9201782" lon="12.8939978"><ele>540.0</ele><time>2026-04-10T18:25:01.342Z</time></trkpt><trkpt lat="41.920194" lon="12.8938921"><ele>541.0</ele><time>2026-04-10T18:25:39.324Z</time></trkpt><trkpt lat="41.9202195" lon="12.8938143"><ele>542.0</ele><time>2026-04-10T18:25:48.325Z</time></trkpt><trkpt lat="41.9201895" lon="12.8937333"><ele>542.0</ele><time>2026-04-10T18:25:56.324Z</time></trkpt><trkpt lat="41.9202305" lon="12.8936533"><ele>542.0</ele><time>2026-04-10T18:26:14.324Z</time></trkpt><trkpt lat="41.9202099" lon="12.893559"><ele>542.0</ele><time>2026-04-10T18:26:27.323Z</time></trkpt><trkpt lat="41.9202001" lon="12.8934392"><ele>542.0</ele><time>2026-04-10T18:26:29.325Z</time></trkpt><trkpt lat="41.9201911" lon="12.8933467"><ele>542.0</ele><time>2026-04-10T18:26:36.324Z</time></trkpt><trkpt lat="41.9201775" lon="12.8932624"><ele>542.0</ele><time>2026-04-10T18:26:43.324Z</time></trkpt><trkpt lat="41.9201089" lon="12.89326"><ele>542.0</ele><time>2026-04-10T18:26:52.323Z</time></trkpt><trkpt lat="41.9200455" lon="12.8932166"><ele>541.2857142857142</ele><time>2026-04-10T18:26:57.344Z</time></trkpt><trkpt lat="41.9200103" lon="12.8931388"><ele>540.5714285714286</ele><time>2026-04-10T18:27:02.325Z</time></trkpt><trkpt lat="41.9199892" lon="12.8930572"><ele>539.8571428571429</ele><time>2026-04-10T18:27:07.324Z</time></trkpt><trkpt lat="41.9199754" lon="12.8929705"><ele>539.1428571428571</ele><time>2026-04-10T18:27:13.324Z</time></trkpt><trkpt lat="41.9199752" lon="12.892879"><ele>538.4285714285714</ele><time>2026-04-10T18:27:20.326Z</time></trkpt><trkpt lat="41.9199668" lon="12.892788"><ele>537.7142857142857</ele><time>2026-04-10T18:27:28.323Z</time></trkpt><trkpt lat="41.9199783" lon="12.8926934"><ele>537.0</ele><time>2026-04-10T18:27:36.324Z</time></trkpt><trkpt lat="41.9199788" lon="12.8926073"><ele>537.8571428571428</ele><time>2026-04-10T18:27:43.324Z</time></trkpt><trkpt lat="41.9199465" lon="12.8925326"><ele>538.7142857142857</ele><time>2026-04-10T18:27:50.324Z</time></trkpt><trkpt lat="41.9199183" lon="12.8924568"><ele>539.5714285714286</ele><time>2026-04-10T18:27:56.324Z</time></trkpt><trkpt lat="41.9198899" lon="12.8923713"><ele>540.4285714285713</ele><time>2026-04-10T18:28:04.335Z</time></trkpt><trkpt lat="41.919857" lon="12.8922963"><ele>541.2857142857142</ele><time>2026-04-10T18:28:11.324Z</time></trkpt><trkpt lat="41.9198537" lon="12.8921993"><ele>542.1428571428571</ele><time>2026-04-10T18:28:18.324Z</time></trkpt><trkpt lat="41.9198255" lon="12.8921113"><ele>543.0</ele><time>2026-04-10T18:28:25.324Z</time></trkpt><trkpt lat="41.9197933" lon="12.8920252"><ele>543.0</ele><time>2026-04-10T18:28:31.236Z</time></trkpt><trkpt lat="41.9197868" lon="12.8919382"><ele>543.0</ele><time>2026-04-10T18:28:38.324Z</time></trkpt><trkpt lat="41.9197257" lon="12.8919039"><ele>543.0</ele><time>2026-04-10T18:28:49.324Z</time></trkpt><trkpt lat="41.9196823" lon="12.8918332"><ele>543.0</ele><time>2026-04-10T18:28:54.325Z</time></trkpt><trkpt lat="41.9196387" lon="12.8917676"><ele>543.0</ele><time>2026-04-10T18:28:59.325Z</time></trkpt><trkpt lat="41.9195913" lon="12.8917025"><ele>543.0</ele><time>2026-04-10T18:29:06.325Z</time></trkpt><trkpt lat="41.9195386" lon="12.8916501"><ele>543.0</ele><time>2026-04-10T18:29:15.325Z</time></trkpt><trkpt lat="41.9195418" lon="12.8915616"><ele>543.5714285714286</ele><time>2026-04-10T18:29:24.326Z</time></trkpt><trkpt lat="41.9194826" lon="12.8915079"><ele>544.1428571428571</ele><time>2026-04-10T18:29:39.325Z</time></trkpt><trkpt lat="41.9194849" lon="12.8914129"><ele>544.7142857142857</ele><time>2026-04-10T18:29:47.325Z</time></trkpt><trkpt lat="41.9195435" lon="12.8913635"><ele>545.2857142857142</ele><time>2026-04-10T18:29:54.325Z</time></trkpt><trkpt lat="41.9195601" lon="12.8912613"><ele>545.8571428571428</ele><time>2026-04-10T18:30:12.325Z</time></trkpt><trkpt lat="41.9195248" lon="12.8911853"><ele>546.4285714285714</ele><time>2026-04-10T18:30:19.324Z</time></trkpt><trkpt lat="41.9194612" lon="12.8911783"><ele>547.0</ele><time>2026-04-10T18:30:24.325Z</time></trkpt><trkpt lat="41.919413" lon="12.8911136"><ele>547.0</ele><time>2026-04-10T18:30:32.325Z</time></trkpt><trkpt lat="41.919416" lon="12.891016"><ele>547.0</ele><time>2026-04-10T18:30:41.325Z</time></trkpt><trkpt lat="41.9193922" lon="12.8909364"><ele>547.0</ele><time>2026-04-10T18:30:49.325Z</time></trkpt><trkpt lat="41.9193554" lon="12.890856"><ele>547.0</ele><time>2026-04-10T18:30:57.342Z</time></trkpt><trkpt lat="41.9193613" lon="12.8907689"><ele>547.0</ele><time>2026-04-10T18:31:09.325Z</time></trkpt><trkpt lat="41.9193268" lon="12.8906885"><ele>547.0</ele><time>2026-04-10T18:31:15.325Z</time></trkpt><trkpt lat="41.9192911" lon="12.890616"><ele>547.0</ele><time>2026-04-10T18:31:21.325Z</time></trkpt><trkpt lat="41.9192536" lon="12.8905395"><ele>544.2857142857142</ele><time>2026-04-10T18:31:28.325Z</time></trkpt><trkpt lat="41.9192057" lon="12.8904819"><ele>541.5714285714286</ele><time>2026-04-10T18:31:36.325Z</time></trkpt><trkpt lat="41.9191632" lon="12.8904044"><ele>538.8571428571429</ele><time>2026-04-10T18:31:47.326Z</time></trkpt><trkpt lat="41.9191366" lon="12.8903163"><ele>536.1428571428571</ele><time>2026-04-10T18:31:54.326Z</time></trkpt><trkpt lat="41.9190981" lon="12.8902464"><ele>533.4285714285714</ele><time>2026-04-10T18:31:59.325Z</time></trkpt><trkpt lat="41.9190523" lon="12.8901663"><ele>530.7142857142857</ele><time>2026-04-10T18:32:07.325Z</time></trkpt><trkpt lat="41.9190243" lon="12.8900892"><ele>528.0</ele><time>2026-04-10T18:32:14.325Z</time></trkpt><trkpt lat="41.9190298" lon="12.8900029"><ele>528.0</ele><time>2026-04-10T18:32:21.281Z</time></trkpt><trkpt lat="41.9190022" lon="12.8899222"><ele>528.0</ele><time>2026-04-10T18:33:09.325Z</time></trkpt><trkpt lat="41.9189529" lon="12.8898564"><ele>528.0</ele><time>2026-04-10T18:33:16.28Z</time></trkpt><trkpt lat="41.9189101" lon="12.8897907"><ele>528.0</ele><time>2026-04-10T18:33:24.238Z</time></trkpt><trkpt lat="41.9188581" lon="12.8897373"><ele>528.0</ele><time>2026-04-10T18:33:33.325Z</time></trkpt><trkpt lat="41.9188322" lon="12.8896488"><ele>528.0</ele><time>2026-04-10T18:33:43.342Z</time></trkpt><trkpt lat="41.9187927" lon="12.8895673"><ele>528.0</ele><time>2026-04-10T18:33:52.324Z</time></trkpt><trkpt lat="41.9187828" lon="12.8894814"><ele>528.0</ele><time>2026-04-10T18:34:00.324Z</time></trkpt><trkpt lat="41.9187443" lon="12.8894019"><ele>528.0</ele><time>2026-04-10T18:34:09.325Z</time></trkpt><trkpt lat="41.918695" lon="12.8893403"><ele>528.0</ele><time>2026-04-10T18:34:16.325Z</time></trkpt><trkpt lat="41.9186345" lon="12.8893013"><ele>528.0</ele><time>2026-04-10T18:34:25.326Z</time></trkpt><trkpt lat="41.9185765" lon="12.8892613"><ele>528.0</ele><time>2026-04-10T18:34:30.325Z</time></trkpt><trkpt lat="41.9185568" lon="12.8891774"><ele>528.0</ele><time>2026-04-10T18:34:40.325Z</time></trkpt><trkpt lat="41.9184939" lon="12.8891491"><ele>528.0</ele><time>2026-04-10T18:34:52.326Z</time></trkpt><trkpt lat="41.9184513" lon="12.8890722"><ele>524.0</ele><time>2026-04-10T18:35:06.326Z</time></trkpt><trkpt lat="41.9183968" lon="12.8891271"><ele>520.0</ele><time>2026-04-10T18:35:39.326Z</time></trkpt><trkpt lat="41.9183641" lon="12.8890437"><ele>516.0</ele><time>2026-04-10T18:36:05.314Z</time></trkpt><trkpt lat="41.9183192" lon="12.8889756"><ele>512.0</ele><time>2026-04-10T18:36:13.326Z</time></trkpt><trkpt lat="41.9183165" lon="12.888889"><ele>508.0</ele><time>2026-04-10T18:36:20.234Z</time></trkpt><trkpt lat="41.9182773" lon="12.8888212"><ele>504.0</ele><time>2026-04-10T18:36:25.326Z</time></trkpt><trkpt lat="41.9182325" lon="12.8887603"><ele>500.0</ele><time>2026-04-10T18:36:31.277Z</time></trkpt><trkpt lat="41.9182104" lon="12.8886794"><ele>500.0</ele><time>2026-04-10T18:36:38.326Z</time></trkpt><trkpt lat="41.9182277" lon="12.8885968"><ele>500.0</ele><time>2026-04-10T18:36:45.327Z</time></trkpt><trkpt lat="41.9182327" lon="12.888499"><ele>500.0</ele><time>2026-04-10T18:36:52.327Z</time></trkpt><trkpt lat="41.918249" lon="12.8884079"><ele>500.0</ele><time>2026-04-10T18:36:58.326Z</time></trkpt><trkpt lat="41.9182598" lon="12.8883096"><ele>500.0</ele><time>2026-04-10T18:37:04.326Z</time></trkpt><trkpt lat="41.9182882" lon="12.8882302"><ele>500.0</ele><time>2026-04-10T18:37:20.326Z</time></trkpt><trkpt lat="41.9183374" lon="12.8881764"><ele>500.0</ele><time>2026-04-10T18:37:26.326Z</time></trkpt><trkpt lat="41.91837" lon="12.8881005"><ele>499.57142857142856</ele><time>2026-04-10T18:37:33.326Z</time></trkpt><trkpt lat="41.9184008" lon="12.8880198"><ele>499.14285714285717</ele><time>2026-04-10T18:37:41.326Z</time></trkpt><trkpt lat="41.9184357" lon="12.887944"><ele>498.7142857142857</ele><time>2026-04-10T18:37:49.326Z</time></trkpt><trkpt lat="41.9184684" lon="12.8878665"><ele>498.2857142857143</ele><time>2026-04-10T18:37:57.326Z</time></trkpt><trkpt lat="41.9185072" lon="12.8877864"><ele>497.8571428571429</ele><time>2026-04-10T18:38:04.326Z</time></trkpt><trkpt lat="41.9185241" lon="12.8877023"><ele>497.42857142857144</ele><time>2026-04-10T18:38:11.326Z</time></trkpt><trkpt lat="41.9185572" lon="12.8876192"><ele>497.0</ele><time>2026-04-10T18:38:39.326Z</time></trkpt><trkpt lat="41.9185814" lon="12.8875317"><ele>499.7142857142857</ele><time>2026-04-10T18:38:45.262Z</time></trkpt><trkpt lat="41.9186166" lon="12.8874448"><ele>502.42857142857144</ele><time>2026-04-10T18:38:53.326Z</time></trkpt><trkpt lat="41.9186678" lon="12.8873918"><ele>505.1428571428571</ele><time>2026-04-10T18:39:00.326Z</time></trkpt><trkpt lat="41.9187116" lon="12.8873252"><ele>507.85714285714283</ele><time>2026-04-10T18:39:06.326Z</time></trkpt><trkpt lat="41.91876" lon="12.88727"><ele>510.57142857142856</ele><time>2026-04-10T18:39:12.899Z</time></trkpt><trkpt lat="41.9187873" lon="12.8871838"><ele>513.2857142857142</ele><time>2026-04-10T18:39:19.326Z</time></trkpt><trkpt lat="41.9188438" lon="12.8871356"><ele>516.0</ele><time>2026-04-10T18:39:27.326Z</time></trkpt><trkpt lat="41.9188364" lon="12.8870498"><ele>515.9999999999999</ele><time>2026-04-10T18:39:42.326Z</time></trkpt><trkpt lat="41.9188244" lon="12.8869642"><ele>516.0</ele><time>2026-04-10T18:39:48.326Z</time></trkpt><trkpt lat="41.9188489" lon="12.8868678"><ele>516.0</ele><time>2026-04-10T18:39:55.326Z</time></trkpt><trkpt lat="41.9188717" lon="12.8867749"><ele>516.0</ele><time>2026-04-10T18:40:02.327Z</time></trkpt><trkpt lat="41.9188877" lon="12.8866841"><ele>516.0</ele><time>2026-04-10T18:40:09.326Z</time></trkpt><trkpt lat="41.9188999" lon="12.8865912"><ele>515.9999999999999</ele><time>2026-04-10T18:40:16.258Z</time></trkpt><trkpt lat="41.9188856" lon="12.8865055"><ele>516.0</ele><time>2026-04-10T18:40:22.276Z</time></trkpt><trkpt lat="41.9189422" lon="12.8864478"><ele>514.4285714285713</ele><time>2026-04-10T18:40:37.326Z</time></trkpt><trkpt lat="41.9190054" lon="12.8864032"><ele>512.8571428571429</ele><time>2026-04-10T18:40:43.326Z</time></trkpt><trkpt lat="41.9190446" lon="12.8863295"><ele>511.2857142857142</ele><time>2026-04-10T18:40:52.325Z</time></trkpt><trkpt lat="41.9190602" lon="12.8862434"><ele>509.71428571428567</ele><time>2026-04-10T18:40:58.326Z</time></trkpt><trkpt lat="41.9190326" lon="12.8861606"><ele>508.1428571428571</ele><time>2026-04-10T18:41:04.334Z</time></trkpt><trkpt lat="41.9190597" lon="12.8860821"><ele>506.57142857142856</ele><time>2026-04-10T18:41:10.326Z</time></trkpt><trkpt lat="41.9190431" lon="12.8859901"><ele>505.0</ele><time>2026-04-10T18:41:18.326Z</time></trkpt><trkpt lat="41.9190142" lon="12.8859105"><ele>504.57142857142856</ele><time>2026-04-10T18:41:24.327Z</time></trkpt><trkpt lat="41.9190059" lon="12.8858144"><ele>504.1428571428571</ele><time>2026-04-10T18:41:40.238Z</time></trkpt><trkpt lat="41.919002" lon="12.8857222"><ele>503.71428571428567</ele><time>2026-04-10T18:41:47.326Z</time></trkpt><trkpt lat="41.9189958" lon="12.8856309"><ele>503.2857142857142</ele><time>2026-04-10T18:41:54.233Z</time></trkpt><trkpt lat="41.9190025" lon="12.8855412"><ele>502.85714285714283</ele><time>2026-04-10T18:42:02.328Z</time></trkpt><trkpt lat="41.9189963" lon="12.8854483"><ele>502.42857142857133</ele><time>2026-04-10T18:42:10.283Z</time></trkpt><trkpt lat="41.918989" lon="12.8853628"><ele>501.99999999999994</ele><time>2026-04-10T18:42:15.326Z</time></trkpt><trkpt lat="41.9190058" lon="12.8852734"><ele>501.99999999999994</ele><time>2026-04-10T18:42:22.327Z</time></trkpt><trkpt lat="41.9190181" lon="12.8851745"><ele>502.0</ele><time>2026-04-10T18:42:29.321Z</time></trkpt><trkpt lat="41.919003" lon="12.8850881"><ele>501.99999999999994</ele><time>2026-04-10T18:42:38.327Z</time></trkpt><trkpt lat="41.9190267" lon="12.8850036"><ele>501.99999999999994</ele><time>2026-04-10T18:42:46.327Z</time></trkpt><trkpt lat="41.919053" lon="12.8849105"><ele>502.0</ele><time>2026-04-10T18:43:02.326Z</time></trkpt><trkpt lat="41.9190751" lon="12.8848254"><ele>501.99999999999994</ele><time>2026-04-10T18:43:08.327Z</time></trkpt><trkpt lat="41.919098" lon="12.8847434"><ele>501.99999999999994</ele><time>2026-04-10T18:43:15.327Z</time></trkpt><trkpt lat="41.9191055" lon="12.8846591"><ele>501.42857142857133</ele><time>2026-04-10T18:43:22.327Z</time></trkpt><trkpt lat="41.919113" lon="12.8845686"><ele>500.85714285714283</ele><time>2026-04-10T18:43:30.327Z</time></trkpt><trkpt lat="41.919137" lon="12.88448"><ele>500.2857142857142</ele><time>2026-04-10T18:43:38.327Z</time></trkpt><trkpt lat="41.919174" lon="12.8843949"><ele>499.71428571428567</ele><time>2026-04-10T18:43:45.328Z</time></trkpt><trkpt lat="41.9192009" lon="12.8843176"><ele>499.1428571428571</ele><time>2026-04-10T18:43:51.327Z</time></trkpt><trkpt lat="41.9191834" lon="12.8842223"><ele>498.57142857142856</ele><time>2026-04-10T18:43:58.327Z</time></trkpt><trkpt lat="41.9191711" lon="12.884135"><ele>498.0</ele><time>2026-04-10T18:44:05.327Z</time></trkpt><trkpt lat="41.9191613" lon="12.884042"><ele>496.71428571428567</ele><time>2026-04-10T18:44:12.327Z</time></trkpt><trkpt lat="41.9191653" lon="12.8839464"><ele>495.4285714285714</ele><time>2026-04-10T18:44:19.328Z</time></trkpt><trkpt lat="41.9191794" lon="12.883856"><ele>494.1428571428571</ele><time>2026-04-10T18:44:25.327Z</time></trkpt><trkpt lat="41.9191866" lon="12.8837668"><ele>492.8571428571429</ele><time>2026-04-10T18:44:31.327Z</time></trkpt><trkpt lat="41.9191558" lon="12.8836817"><ele>491.5714285714286</ele><time>2026-04-10T18:44:38.327Z</time></trkpt><trkpt lat="41.9191234" lon="12.8836015"><ele>490.28571428571433</ele><time>2026-04-10T18:44:46.327Z</time></trkpt><trkpt lat="41.9191217" lon="12.883515"><ele>489.0</ele><time>2026-04-10T18:44:54.327Z</time></trkpt><trkpt lat="41.9191431" lon="12.8834291"><ele>487.42857142857144</ele><time>2026-04-10T18:45:01.326Z</time></trkpt><trkpt lat="41.9191673" lon="12.8833448"><ele>485.8571428571429</ele><time>2026-04-10T18:45:07.326Z</time></trkpt><trkpt lat="41.9191374" lon="12.8832592"><ele>484.28571428571433</ele><time>2026-04-10T18:45:16.327Z</time></trkpt><trkpt lat="41.9191417" lon="12.8831655"><ele>482.7142857142858</ele><time>2026-04-10T18:45:23.327Z</time></trkpt><trkpt lat="41.919151" lon="12.8830621"><ele>481.14285714285717</ele><time>2026-04-10T18:45:30.328Z</time></trkpt><trkpt lat="41.9191567" lon="12.8829744"><ele>479.57142857142867</ele><time>2026-04-10T18:45:37.328Z</time></trkpt><trkpt lat="41.9190971" lon="12.8829433"><ele>478.00000000000006</ele><time>2026-04-10T18:45:47.327Z</time></trkpt><trkpt lat="41.9190317" lon="12.8829795"><ele>478.00000000000006</ele><time>2026-04-10T18:46:03.327Z</time></trkpt><trkpt lat="41.9190226" lon="12.8828909"><ele>478.0</ele><time>2026-04-10T18:46:10.356Z</time></trkpt><trkpt lat="41.9190685" lon="12.8828234"><ele>478.00000000000006</ele><time>2026-04-10T18:46:21.328Z</time></trkpt><trkpt lat="41.9191281" lon="12.88279"><ele>478.00000000000006</ele><time>2026-04-10T18:46:33.328Z</time></trkpt><trkpt lat="41.9191235" lon="12.8826962"><ele>478.0</ele><time>2026-04-10T18:46:52.327Z</time></trkpt><trkpt lat="41.9190812" lon="12.882615"><ele>478.00000000000006</ele><time>2026-04-10T18:47:08.327Z</time></trkpt><trkpt lat="41.919024" lon="12.8825763"><ele>478.00000000000006</ele><time>2026-04-10T18:47:15.328Z</time></trkpt><trkpt lat="41.9189656" lon="12.8825385"><ele>475.28571428571433</ele><time>2026-04-10T18:47:23.328Z</time></trkpt><trkpt lat="41.9189991" lon="12.8824575"><ele>472.57142857142856</ele><time>2026-04-10T18:47:41.328Z</time></trkpt><trkpt lat="41.9189914" lon="12.882368"><ele>469.8571428571429</ele><time>2026-04-10T18:47:51.299Z</time></trkpt><trkpt lat="41.9189637" lon="12.8822873"><ele>467.14285714285717</ele><time>2026-04-10T18:48:01.328Z</time></trkpt><trkpt lat="41.9189869" lon="12.8822072"><ele>464.42857142857144</ele><time>2026-04-10T18:48:12.327Z</time></trkpt><trkpt lat="41.9190264" lon="12.8821306"><ele>461.7142857142857</ele><time>2026-04-10T18:48:25.328Z</time></trkpt><trkpt lat="41.9190085" lon="12.8820457"><ele>459.0</ele><time>2026-04-10T18:48:32.328Z</time></trkpt><trkpt lat="41.9189703" lon="12.8819674"><ele>459.0</ele><time>2026-04-10T18:48:41.26Z</time></trkpt><trkpt lat="41.9189604" lon="12.8818816"><ele>459.0</ele><time>2026-04-10T18:48:50.328Z</time></trkpt><trkpt lat="41.9189634" lon="12.881792"><ele>459.0</ele><time>2026-04-10T18:48:59.262Z</time></trkpt><trkpt lat="41.9189733" lon="12.8817065"><ele>459.0</ele><time>2026-04-10T18:49:08.328Z</time></trkpt><trkpt lat="41.9189257" lon="12.8816451"><ele>459.0</ele><time>2026-04-10T18:49:15.301Z</time></trkpt><trkpt lat="41.9188766" lon="12.8815825"><ele>459.0</ele><time>2026-04-10T18:49:22.328Z</time></trkpt><trkpt lat="41.9188681" lon="12.881494"><ele>459.0</ele><time>2026-04-10T18:49:31.328Z</time></trkpt><trkpt lat="41.9188694" lon="12.8814085"><ele>457.57142857142856</ele><time>2026-04-10T18:49:38.328Z</time></trkpt><trkpt lat="41.918857" lon="12.8813234"><ele>456.1428571428571</ele><time>2026-04-10T18:49:48.328Z</time></trkpt><trkpt lat="41.9188602" lon="12.8812341"><ele>454.71428571428567</ele><time>2026-04-10T18:49:56.328Z</time></trkpt><trkpt lat="41.9188508" lon="12.881149"><ele>453.2857142857143</ele><time>2026-04-10T18:50:04.328Z</time></trkpt><trkpt lat="41.9188368" lon="12.8810591"><ele>451.8571428571428</ele><time>2026-04-10T18:50:11.327Z</time></trkpt><trkpt lat="41.9188216" lon="12.8809769"><ele>450.4285714285714</ele><time>2026-04-10T18:50:17.238Z</time></trkpt><trkpt lat="41.9188022" lon="12.8808921"><ele>449.0</ele><time>2026-04-10T18:50:25.332Z</time></trkpt><trkpt lat="41.9188214" lon="12.8808105"><ele>449.0</ele><time>2026-04-10T18:50:34.328Z</time></trkpt><trkpt lat="41.9188847" lon="12.8807936"><ele>448.99999999999994</ele><time>2026-04-10T18:50:46.328Z</time></trkpt><trkpt lat="41.9189195" lon="12.8807122"><ele>449.0</ele><time>2026-04-10T18:50:54.299Z</time></trkpt><trkpt lat="41.9189001" lon="12.8806298"><ele>449.0</ele><time>2026-04-10T18:51:07.328Z</time></trkpt><trkpt lat="41.9189031" lon="12.8805374"><ele>448.99999999999994</ele><time>2026-04-10T18:51:41.328Z</time></trkpt><trkpt lat="41.9188965" lon="12.8804452"><ele>449.0</ele><time>2026-04-10T18:51:48.328Z</time></trkpt><trkpt lat="41.9188808" lon="12.8803602"><ele>449.0</ele><time>2026-04-10T18:51:56.329Z</time></trkpt><trkpt lat="41.9188918" lon="12.8802672"><ele>449.0</ele><time>2026-04-10T18:52:08.329Z</time></trkpt><trkpt lat="41.9188744" lon="12.8801763"><ele>448.99999999999994</ele><time>2026-04-10T18:52:16.328Z</time></trkpt><trkpt lat="41.9188546" lon="12.8800949"><ele>449.0</ele><time>2026-04-10T18:52:24.329Z</time></trkpt><trkpt lat="41.9188827" lon="12.8800159"><ele>449.0</ele><time>2026-04-10T18:52:36.329Z</time></trkpt><trkpt lat="41.9188786" lon="12.8799281"><ele>448.99999999999994</ele><time>2026-04-10T18:52:51.329Z</time></trkpt><trkpt lat="41.9189359" lon="12.8799679"><ele>449.0</ele><time>2026-04-10T18:53:08.329Z</time></trkpt><trkpt lat="41.9189698" lon="12.8800431"><ele>449.0</ele><time>2026-04-10T18:53:22.328Z</time></trkpt><trkpt lat="41.9190153" lon="12.8801031"><ele>449.0</ele><time>2026-04-10T18:53:31.329Z</time></trkpt><trkpt lat="41.9190782" lon="12.8801264"><ele>448.99999999999994</ele><time>2026-04-10T18:53:41.329Z</time></trkpt><trkpt lat="41.9191269" lon="12.8801869"><ele>449.0</ele><time>2026-04-10T18:53:52.329Z</time></trkpt><trkpt lat="41.9191475" lon="12.8802749"><ele>449.0</ele><time>2026-04-10T18:54:00.297Z</time></trkpt><trkpt lat="41.9191581" lon="12.8803657"><ele>448.99999999999994</ele><time>2026-04-10T18:54:08.329Z</time></trkpt><trkpt lat="41.9191843" lon="12.8804548"><ele>449.0</ele><time>2026-04-10T18:54:16.329Z</time></trkpt><trkpt lat="41.9191654" lon="12.8805445"><ele>449.0</ele><time>2026-04-10T18:54:24.329Z</time></trkpt><trkpt lat="41.9191591" lon="12.8806311"><ele>449.0</ele><time>2026-04-10T18:54:33.36Z</time></trkpt><trkpt lat="41.919191" lon="12.8807053"><ele>448.99999999999994</ele><time>2026-04-10T18:54:42.329Z</time></trkpt><trkpt lat="41.9192207" lon="12.8807928"><ele>449.0</ele><time>2026-04-10T18:54:51.329Z</time></trkpt><trkpt lat="41.9192787" lon="12.8808415"><ele>449.0</ele><time>2026-04-10T18:55:04.331Z</time></trkpt><trkpt lat="41.9193397" lon="12.8808789"><ele>448.99999999999994</ele><time>2026-04-10T18:55:18.329Z</time></trkpt><trkpt lat="41.9194036" lon="12.8809028"><ele>449.0</ele><time>2026-04-10T18:55:35.346Z</time></trkpt><trkpt lat="41.9195146" lon="12.880922"><ele>449.0</ele><time>2026-04-10T18:56:02.33Z</time></trkpt><trkpt lat="41.9195944" lon="12.8809148"><ele>454.4285714285714</ele><time>2026-04-10T18:56:46.355Z</time></trkpt><trkpt lat="41.9196586" lon="12.8808531"><ele>459.8571428571428</ele><time>2026-04-10T18:57:07.33Z</time></trkpt><trkpt lat="41.9197101" lon="12.8807976"><ele>465.2857142857143</ele><time>2026-04-10T18:57:20.33Z</time></trkpt><trkpt lat="41.9197593" lon="12.8807375"><ele>470.71428571428567</ele><time>2026-04-10T18:57:30.331Z</time></trkpt><trkpt lat="41.919785" lon="12.8806582"><ele>476.1428571428571</ele><time>2026-04-10T18:57:42.329Z</time></trkpt><trkpt lat="41.9198305" lon="12.880593"><ele>481.57142857142856</ele><time>2026-04-10T18:57:52.33Z</time></trkpt><trkpt lat="41.9198858" lon="12.8806344"><ele>487.0</ele><time>2026-04-10T18:58:23.33Z</time></trkpt><trkpt lat="41.9199475" lon="12.8805887"><ele>487.00000000000006</ele><time>2026-04-10T18:58:56.302Z</time></trkpt><trkpt lat="41.9200124" lon="12.8805589"><ele>487.0</ele><time>2026-04-10T18:59:06.33Z</time></trkpt><trkpt lat="41.9199375" lon="12.8804082"><ele>487.0</ele><time>2026-04-10T18:59:09.33Z</time></trkpt><trkpt lat="41.9199036" lon="12.880329"><ele>487.0</ele><time>2026-04-10T18:59:12.352Z</time></trkpt><trkpt lat="41.9198904" lon="12.8802374"><ele>487.00000000000006</ele><time>2026-04-10T18:59:18.329Z</time></trkpt><trkpt lat="41.9198594" lon="12.8801621"><ele>487.0</ele><time>2026-04-10T18:59:24.33Z</time></trkpt><trkpt lat="41.9198285" lon="12.8800696"><ele>487.8571428571429</ele><time>2026-04-10T18:59:30.33Z</time></trkpt><trkpt lat="41.919799" lon="12.8799948"><ele>488.71428571428567</ele><time>2026-04-10T18:59:35.303Z</time></trkpt><trkpt lat="41.9197891" lon="12.8799095"><ele>489.57142857142856</ele><time>2026-04-10T18:59:42.33Z</time></trkpt><trkpt lat="41.919763" lon="12.8798167"><ele>490.42857142857144</ele><time>2026-04-10T18:59:48.33Z</time></trkpt><trkpt lat="41.9197454" lon="12.8797341"><ele>491.28571428571433</ele><time>2026-04-10T18:59:54.278Z</time></trkpt><trkpt lat="41.9197208" lon="12.8796438"><ele>492.1428571428571</ele><time>2026-04-10T19:00:00.33Z</time></trkpt><trkpt lat="41.9197024" lon="12.8795623"><ele>493.0</ele><time>2026-04-10T19:00:05.326Z</time></trkpt><trkpt lat="41.9196827" lon="12.8794658"><ele>493.0</ele><time>2026-04-10T19:00:11.357Z</time></trkpt><trkpt lat="41.9196606" lon="12.8793826"><ele>493.0</ele><time>2026-04-10T19:00:18.33Z</time></trkpt><trkpt lat="41.9196466" lon="12.8792871"><ele>493.0</ele><time>2026-04-10T19:00:25.33Z</time></trkpt><trkpt lat="41.9196231" lon="12.8792001"><ele>493.0</ele><time>2026-04-10T19:00:31.33Z</time></trkpt><trkpt lat="41.9196013" lon="12.8791027"><ele>493.0</ele><time>2026-04-10T19:00:37.343Z</time></trkpt><trkpt lat="41.9195867" lon="12.8790119"><ele>493.0</ele><time>2026-04-10T19:00:42.346Z</time></trkpt><trkpt lat="41.9195697" lon="12.8789267"><ele>493.0</ele><time>2026-04-10T19:00:49.351Z</time></trkpt><trkpt lat="41.9195505" lon="12.8788289"><ele>493.2857142857143</ele><time>2026-04-10T19:00:55.334Z</time></trkpt><trkpt lat="41.9195343" lon="12.8787286"><ele>493.57142857142856</ele><time>2026-04-10T19:01:01.33Z</time></trkpt><trkpt lat="41.9195192" lon="12.8786374"><ele>493.85714285714283</ele><time>2026-04-10T19:01:07.33Z</time></trkpt><trkpt lat="41.9194971" lon="12.8785393"><ele>494.1428571428571</ele><time>2026-04-10T19:01:13.329Z</time></trkpt><trkpt lat="41.9194827" lon="12.8784518"><ele>494.42857142857144</ele><time>2026-04-10T19:01:19.323Z</time></trkpt><trkpt lat="41.9194954" lon="12.8783583"><ele>494.71428571428567</ele><time>2026-04-10T19:01:26.33Z</time></trkpt><trkpt lat="41.9195131" lon="12.8782638"><ele>494.99999999999994</ele><time>2026-04-10T19:01:33.33Z</time></trkpt><trkpt lat="41.9195415" lon="12.8781862"><ele>493.1428571428571</ele><time>2026-04-10T19:01:38.33Z</time></trkpt><trkpt lat="41.9195711" lon="12.8781066"><ele>491.2857142857143</ele><time>2026-04-10T19:01:44.372Z</time></trkpt><trkpt lat="41.9196157" lon="12.8780402"><ele>489.42857142857144</ele><time>2026-04-10T19:01:50.342Z</time></trkpt><trkpt lat="41.9196583" lon="12.8779644"><ele>487.57142857142856</ele><time>2026-04-10T19:01:59.357Z</time></trkpt><trkpt lat="41.9197171" lon="12.8779174"><ele>485.7142857142858</ele><time>2026-04-10T19:02:05.33Z</time></trkpt><trkpt lat="41.9197827" lon="12.8778954"><ele>483.8571428571429</ele><time>2026-04-10T19:02:11.33Z</time></trkpt><trkpt lat="41.9198463" lon="12.8778509"><ele>482.0</ele><time>2026-04-10T19:02:18.238Z</time></trkpt><trkpt lat="41.9199045" lon="12.8778028"><ele>482.0</ele><time>2026-04-10T19:02:24.33Z</time></trkpt><trkpt lat="41.919956" lon="12.8777344"><ele>482.0</ele><time>2026-04-10T19:02:30.244Z</time></trkpt><trkpt lat="41.9200243" lon="12.8777105"><ele>482.0</ele><time>2026-04-10T19:02:37.32Z</time></trkpt><trkpt lat="41.9198651" lon="12.877652"><ele>482.0</ele><time>2026-04-10T19:02:58.331Z</time></trkpt></trkseg></trk></gpx>